createdAt,value
2022-11-18T00:01:21.356Z,99329.22
2022-11-18T00:03:49.249Z,99331.09
2022-11-18T00:06:28.347Z,99328.47
2022-11-18T00:08:56.339Z,99330.28
2022-11-18T00:11:44.229Z,99334.41
2022-11-18T00:14:18.979Z,99338.09
2022-11-18T00:17:07.349Z,99341.56
2022-11-18T00:19:37.980Z,99348.41
2022-11-18T00:22:08.026Z,99337.03
2022-11-18T00:24:35.310Z,99338.78
2022-11-18T00:27:02.261Z,99345.72
2022-11-18T00:29:30.921Z,99345.69
2022-11-18T00:31:58.556Z,99349.19
2022-11-18T00:34:25.961Z,99357.03
2022-11-18T00:36:53.165Z,99357.00
2022-11-18T00:39:21.508Z,99356.13
2022-11-18T00:42:08.296Z,99360.41
2022-11-18T00:44:35.613Z,99356.00
2022-11-18T00:47:03.133Z,99361.16
2022-11-18T00:49:30.309Z,99362.91
2022-11-18T00:51:57.551Z,99369.84
2022-11-18T00:54:24.677Z,99370.66
2022-11-18T00:56:51.756Z,99383.72
2022-11-18T00:59:18.936Z,99381.94
2022-11-18T01:01:46.456Z,99390.63
2022-11-18T01:04:13.588Z,99388.81
2022-11-18T01:06:41.255Z,99396.66
2022-11-18T01:09:08.387Z,99396.63
2022-11-18T01:11:54.023Z,99394.81
2022-11-18T01:14:21.568Z,99404.44
2022-11-18T01:16:51.407Z,99410.47
2022-11-18T01:19:19.591Z,99406.94
2022-11-18T01:21:47.024Z,99408.63
2022-11-18T01:24:14.239Z,99409.44
2022-11-18T01:26:41.510Z,99412.94
2022-11-18T01:29:08.753Z,99419.00
2022-11-18T01:31:35.765Z,99422.47
2022-11-18T01:34:03.886Z,99429.41
2022-11-18T01:36:31.362Z,99428.50
2022-11-18T01:38:58.409Z,99435.44
2022-11-18T01:41:27.189Z,99438.88
2022-11-18T01:44:25.895Z,99450.25
2022-11-18T01:46:52.980Z,99434.50
2022-11-18T01:49:20.418Z,99452.81
2022-11-18T01:51:55.699Z,99453.69
2022-11-18T01:54:33.112Z,99446.69
2022-11-18T01:57:08.439Z,99458.88
2022-11-18T01:59:39.853Z,99449.25
2022-11-18T02:02:11.587Z,99454.47
2022-11-18T02:04:42.055Z,99452.75
2022-11-18T02:07:10.511Z,99457.97
2022-11-18T02:09:39.166Z,99458.81
2022-11-18T02:12:08.154Z,99458.81
2022-11-18T02:14:40.339Z,99468.38
2022-11-18T02:17:22.511Z,99458.75
2022-11-18T02:20:07.412Z,99468.38
2022-11-18T02:23:25.769Z,99465.75
2022-11-18T02:26:29.589Z,99466.63
2022-11-18T02:29:33.760Z,99480.63
2022-11-18T02:32:11.571Z,99475.38
2022-11-18T02:35:19.305Z,99474.31
2022-11-18T02:38:03.467Z,99482.28
2022-11-18T02:40:35.981Z,99488.41
2022-11-18T02:43:16.037Z,99485.81
2022-11-18T02:45:49.573Z,99494.53
2022-11-18T02:48:20.177Z,99495.41
2022-11-18T02:50:51.288Z,99496.97
2022-11-18T02:53:21.643Z,99497.81
2022-11-18T02:55:49.849Z,99505.63
2022-11-18T02:58:20.727Z,99502.94
2022-11-18T03:01:01.486Z,99505.56
2022-11-18T03:03:35.261Z,99501.19
2022-11-18T03:06:41.919Z,99515.16
2022-11-18T03:09:25.076Z,99509.94
2022-11-18T03:12:25.101Z,99509.97
2022-11-18T03:15:15.184Z,99516.19
2022-11-18T03:18:05.153Z,99514.47
2022-11-18T03:21:01.475Z,99518.88
2022-11-18T03:23:42.989Z,99523.31
2022-11-18T03:26:11.942Z,99535.56
2022-11-18T03:28:38.740Z,99530.31
2022-11-18T03:31:13.816Z,99533.00
2022-11-18T03:34:02.011Z,99542.66
2022-11-18T03:36:37.182Z,99547.03
2022-11-18T03:39:08.784Z,99541.00
2022-11-18T03:41:43.534Z,99550.53
2022-11-18T03:44:33.781Z,99556.72
2022-11-18T03:47:17.538Z,99553.09
2022-11-18T03:49:54.815Z,99556.56
2022-11-18T03:52:28.477Z,99557.44
2022-11-18T03:54:59.952Z,99567.06
2022-11-18T03:57:56.177Z,99564.47
2022-11-18T04:00:23.760Z,99567.13
2022-11-18T04:02:51.317Z,99572.53
2022-11-18T04:05:19.486Z,99582.94
2022-11-18T04:08:02.709Z,99582.16
2022-11-18T04:10:33.954Z,99586.69
2022-11-18T04:13:29.550Z,99590.25
2022-11-18T04:15:56.786Z,99588.47
2022-11-18T04:18:23.969Z,99592.81
2022-11-18T04:20:50.914Z,99595.47
2022-11-18T04:23:17.895Z,99599.00
2022-11-18T04:25:44.863Z,99602.59
2022-11-18T04:28:11.897Z,99605.28
2022-11-18T04:30:38.919Z,99609.75
2022-11-18T04:33:06.002Z,99609.81
2022-11-18T04:35:32.944Z,99614.28
2022-11-18T04:37:59.894Z,99611.75
2022-11-18T04:40:26.949Z,99613.53
2022-11-18T04:42:54.050Z,99630.22
2022-11-18T04:45:21.053Z,99632.88
2022-11-18T04:47:48.053Z,99627.69
2022-11-18T04:50:15.122Z,99637.38
2022-11-18T04:52:42.437Z,99637.41
2022-11-18T04:55:09.530Z,99634.81
2022-11-18T04:57:36.469Z,99643.59
2022-11-18T05:00:05.696Z,99645.38
2022-11-18T05:02:32.720Z,99646.28
2022-11-18T05:04:59.661Z,99648.03
2022-11-18T05:07:26.649Z,99655.06
2022-11-18T05:09:53.686Z,99652.47
2022-11-18T05:12:39.539Z,99649.88
2022-11-18T05:15:07.419Z,99667.38
2022-11-18T05:17:36.091Z,99668.28
2022-11-18T05:20:03.348Z,99670.06
2022-11-18T05:22:30.349Z,99663.09
2022-11-18T05:24:57.331Z,99670.94
2022-11-18T05:27:24.293Z,99681.44
2022-11-18T05:29:51.350Z,99673.63
2022-11-18T05:32:21.381Z,99679.72
2022-11-18T05:34:48.361Z,99678.00
2022-11-18T05:37:15.572Z,99680.63
2022-11-18T05:39:42.572Z,99683.28
2022-11-18T05:42:29.522Z,99685.88
2022-11-18T05:44:58.730Z,99684.13
2022-11-18T05:47:27.541Z,99693.75
2022-11-18T05:49:54.589Z,99693.75
2022-11-18T05:52:21.573Z,99698.16
2022-11-18T05:54:50.841Z,99706.03
2022-11-18T05:57:17.948Z,99711.28
2022-11-18T05:59:45.053Z,99714.81
2022-11-18T06:02:21.104Z,99708.69
2022-11-18T06:04:59.735Z,99715.72
2022-11-18T06:07:35.736Z,99718.34
2022-11-18T06:10:05.961Z,99720.97
2022-11-18T06:12:43.213Z,99725.34
2022-11-18T06:15:42.895Z,99719.19
2022-11-18T06:18:25.519Z,99732.31
2022-11-18T06:20:59.928Z,99734.09
2022-11-18T06:23:30.921Z,99735.84
2022-11-18T06:25:58.093Z,99744.56
2022-11-18T06:28:25.700Z,99748.97
2022-11-18T06:30:52.634Z,99749.88
2022-11-18T06:33:19.602Z,99747.25
2022-11-18T06:35:46.582Z,99749.00
2022-11-18T06:38:13.682Z,99762.97
2022-11-18T06:40:44.669Z,99762.97
2022-11-18T06:43:31.387Z,99770.81
2022-11-18T06:46:21.799Z,99767.34
2022-11-18T06:48:49.146Z,99779.59
2022-11-18T06:51:16.340Z,99777.84
2022-11-18T06:53:43.531Z,99777.84
2022-11-18T06:56:13.923Z,99788.31
2022-11-18T06:58:40.934Z,99790.94
2022-11-18T07:01:22.503Z,99791.81
2022-11-18T07:03:50.155Z,99800.53
2022-11-18T07:06:24.200Z,99810.13
2022-11-18T07:08:52.479Z,99809.28
2022-11-18T07:11:26.013Z,99813.63
2022-11-18T07:13:53.651Z,99811.91
2022-11-18T07:16:24.169Z,99818.88
2022-11-18T07:18:53.432Z,99820.59
2022-11-18T07:21:27.032Z,99825.84
2022-11-18T07:23:57.817Z,99829.31
2022-11-18T07:26:25.189Z,99836.28
2022-11-18T07:28:53.682Z,99837.16
2022-11-18T07:31:21.467Z,99836.28
2022-11-18T07:33:49.418Z,99837.13
2022-11-18T07:36:20.627Z,99835.38
2022-11-18T07:38:48.433Z,99835.41
2022-11-18T07:41:25.046Z,99843.22
2022-11-18T07:43:59.019Z,99849.31
2022-11-18T07:46:34.092Z,99846.72
2022-11-18T07:49:04.882Z,99854.59
2022-11-18T07:51:36.251Z,99858.03
2022-11-18T07:54:09.213Z,99861.53
2022-11-18T07:56:36.371Z,99864.97
2022-11-18T07:59:05.050Z,99877.22
2022-11-18T08:01:32.509Z,99868.47
2022-11-18T08:04:10.584Z,99876.31
2022-11-18T08:06:37.903Z,99878.88
2022-11-18T08:09:06.797Z,99885.81
2022-11-18T08:11:34.538Z,99874.38
2022-11-18T08:14:01.856Z,99888.25
2022-11-18T08:16:29.499Z,99895.19
2022-11-18T08:18:58.379Z,99902.13
2022-11-18T08:21:25.370Z,99893.41
2022-11-18T08:23:57.810Z,99906.44
2022-11-18T08:26:25.787Z,99905.53
2022-11-18T08:28:53.423Z,99908.16
2022-11-18T08:31:25.369Z,99907.25
2022-11-18T08:34:07.783Z,99906.28
2022-11-18T08:36:38.044Z,99916.63
2022-11-18T08:39:08.828Z,99915.63
2022-11-18T08:41:43.808Z,99919.03
2022-11-18T08:44:15.136Z,99919.91
2022-11-18T08:46:45.918Z,99923.25
2022-11-18T08:49:13.095Z,99917.03
2022-11-18T08:51:40.212Z,99921.34
2022-11-18T08:54:07.322Z,99909.78
2022-11-18T08:56:34.388Z,99913.06
2022-11-18T08:59:01.413Z,99916.38
2022-11-18T09:01:28.568Z,99916.22
2022-11-18T09:03:55.944Z,99931.00
2022-11-18T09:06:26.907Z,99930.91
2022-11-18T09:08:54.558Z,99932.69
2022-11-18T09:11:27.037Z,99951.09
2022-11-18T09:16:46.437Z,99941.59
2022-11-18T09:22:04.742Z,99936.16
2022-11-18T09:24:33.149Z,99943.09
2022-11-18T09:27:05.056Z,99946.56
2022-11-18T09:29:33.009Z,99941.34
2022-11-18T09:32:02.071Z,99954.47
2022-11-18T09:34:29.505Z,99964.97
2022-11-18T09:36:56.927Z,99964.16
2022-11-18T09:39:25.453Z,99966.00
2022-11-18T09:42:49.008Z,99978.19
2022-11-18T09:45:38.711Z,99990.38
2022-11-18T09:48:41.968Z,99993.88
2022-11-18T09:51:11.789Z,99999.19
2022-11-18T09:53:44.110Z,99998.25
2022-11-18T09:56:16.733Z,99997.47
2022-11-18T09:58:45.199Z,100003.63
2022-11-18T10:01:18.072Z,100004.47
2022-11-18T10:03:45.852Z,100012.19
2022-11-18T10:06:26.634Z,100013.78
2022-11-18T10:09:12.573Z,100018.88
2022-11-18T10:12:16.336Z,100016.91
2022-11-18T10:15:16.903Z,100011.25
2022-11-18T10:18:59.302Z,100011.97
2022-11-18T10:21:52.001Z,100018.19
2022-11-18T10:24:21.653Z,100014.69
2022-11-18T10:26:56.684Z,100027.00
2022-11-18T10:29:23.821Z,100013.84
2022-11-18T10:32:12.427Z,100013.72
2022-11-18T10:34:57.921Z,100024.97
2022-11-18T10:40:27.405Z,100025.59
2022-11-18T10:42:55.377Z,100021.97
2022-11-18T10:45:22.666Z,100026.28
2022-11-18T10:48:09.508Z,100024.41
2022-11-18T10:50:39.741Z,100026.09
2022-11-18T10:53:30.338Z,100027.75
2022-11-18T10:56:28.767Z,100037.41
2022-11-18T10:58:55.828Z,100035.66
2022-11-18T11:01:27.684Z,100033.84
2022-11-18T11:04:20.343Z,100037.28
2022-11-18T11:06:47.453Z,100036.31
2022-11-18T11:09:14.317Z,100038.75
2022-11-18T11:12:17.988Z,100042.13
2022-11-18T11:14:53.230Z,100041.13
2022-11-18T11:17:43.267Z,100040.13
2022-11-18T11:20:17.387Z,100043.50
2022-11-18T11:22:45.923Z,100043.47
2022-11-18T11:25:28.941Z,100046.88
2022-11-18T11:28:19.199Z,100039.78
2022-11-18T11:31:12.743Z,100047.59
2022-11-18T11:34:19.353Z,100052.78
2022-11-18T11:37:24.778Z,100055.38
2022-11-18T11:40:24.448Z,100051.88
2022-11-18T11:43:50.328Z,100057.22
2022-11-18T11:47:21.013Z,100061.59
2022-11-18T11:49:54.207Z,100061.47
2022-11-18T11:52:57.455Z,100057.72
2022-11-18T11:55:24.423Z,100063.56
2022-11-18T11:58:38.090Z,100066.91
2022-11-18T12:01:05.113Z,100063.25
2022-11-18T12:03:52.347Z,100068.47
2022-11-18T12:06:20.287Z,100064.84
2022-11-18T12:09:19.956Z,100063.88
2022-11-18T12:12:34.964Z,100064.84
2022-11-18T12:15:43.473Z,100060.34
2022-11-18T12:18:37.736Z,100065.84
2022-11-18T12:21:04.910Z,100066.22
2022-11-18T12:23:33.910Z,100069.06
2022-11-18T12:26:05.854Z,100064.84
2022-11-18T12:28:42.909Z,100064.16
2022-11-18T12:31:18.864Z,100068.78
2022-11-18T12:33:55.308Z,100072.47
2022-11-18T12:36:42.387Z,100070.81
2022-11-18T12:39:24.912Z,100077.84
2022-11-18T12:42:13.566Z,100068.25
2022-11-18T12:44:42.464Z,100071.06
2022-11-18T12:47:14.647Z,100069.44
2022-11-18T12:49:44.699Z,100071.22
2022-11-18T12:52:30.047Z,100079.22
2022-11-18T12:55:22.637Z,100077.47
2022-11-18T12:57:49.728Z,100077.53
2022-11-18T13:00:31.449Z,100077.53
2022-11-18T13:03:01.722Z,100088.16
2022-11-18T13:05:36.095Z,100087.22
2022-11-18T13:08:13.751Z,100082.78
2022-11-18T13:11:19.189Z,100088.00
2022-11-18T13:13:46.708Z,100087.97
2022-11-18T13:16:43.356Z,100094.91
2022-11-18T13:19:20.889Z,100097.47
2022-11-18T13:22:17.373Z,100091.25
2022-11-18T13:24:52.701Z,100091.22
2022-11-18T13:27:49.963Z,100096.56
2022-11-18T13:30:18.201Z,100095.63
2022-11-18T13:32:47.795Z,100103.34
2022-11-18T13:35:25.665Z,100102.13
2022-11-18T13:37:59.972Z,100107.22
2022-11-18T13:40:32.205Z,100104.59
2022-11-18T13:42:59.210Z,100105.38
2022-11-18T13:45:28.414Z,100108.13
2022-11-18T13:48:12.177Z,100107.38
2022-11-18T13:50:55.057Z,100110.13
2022-11-18T13:53:37.055Z,100112.94
2022-11-18T13:56:05.294Z,100106.91
2022-11-18T13:59:02.520Z,100114.94
2022-11-18T14:01:30.327Z,100110.66
2022-11-18T14:04:03.017Z,100115.09
2022-11-18T14:06:39.166Z,100117.88
2022-11-18T14:09:28.766Z,100121.50
2022-11-18T14:12:23.563Z,100124.28
2022-11-18T14:14:50.647Z,100123.56
2022-11-18T14:17:23.127Z,100123.69
2022-11-18T14:20:07.600Z,100121.06
2022-11-18T14:22:34.687Z,100132.50
2022-11-18T14:25:22.702Z,100134.38
2022-11-18T14:27:58.793Z,100130.03
2022-11-18T14:30:37.011Z,100131.00
2022-11-18T14:33:23.175Z,100131.09
2022-11-18T14:36:16.298Z,100139.91
2022-11-18T14:39:19.335Z,100139.09
2022-11-18T14:41:47.490Z,100147.06
2022-11-18T14:44:15.362Z,100148.00
2022-11-18T14:46:49.900Z,100146.31
2022-11-18T14:49:24.137Z,100148.16
2022-11-18T14:51:53.104Z,100153.50
2022-11-18T14:54:26.868Z,100156.16
2022-11-18T14:57:04.377Z,100161.47
2022-11-18T14:59:31.926Z,100171.19
2022-11-18T15:01:59.497Z,100173.81
2022-11-18T15:04:26.992Z,100168.56
2022-11-18T15:06:54.361Z,100174.78
2022-11-18T15:09:21.804Z,100180.06
2022-11-18T15:11:48.863Z,100180.19
2022-11-18T15:14:16.058Z,100184.59
2022-11-18T15:16:43.308Z,100181.16
2022-11-18T15:19:15.891Z,100184.69
2022-11-18T15:21:45.396Z,100179.53
2022-11-18T15:24:12.729Z,100183.03
2022-11-18T15:26:44.758Z,100190.94
2022-11-18T15:29:21.814Z,100190.09
2022-11-18T15:31:49.516Z,100190.97
2022-11-18T15:34:19.011Z,100189.25
2022-11-18T15:36:46.984Z,100191.94
2022-11-18T15:39:14.095Z,100193.72
2022-11-18T15:41:43.088Z,100198.13
2022-11-18T15:44:12.001Z,100196.28
2022-11-18T15:46:39.539Z,100198.88
2022-11-18T15:49:09.450Z,100201.53
2022-11-18T15:51:37.043Z,100196.31
2022-11-18T15:54:04.324Z,100190.16
2022-11-18T15:56:33.056Z,100193.72
2022-11-18T15:59:02.350Z,100204.25
2022-11-18T16:01:32.979Z,100201.63
2022-11-18T16:04:00.417Z,100205.28
2022-11-18T16:06:27.645Z,100205.16
2022-11-18T16:08:59.904Z,100209.53
2022-11-18T16:11:48.169Z,100216.53
2022-11-18T16:14:18.575Z,100209.56
2022-11-18T16:16:48.216Z,100208.69
2022-11-18T16:19:19.831Z,100214.84
2022-11-18T16:21:50.660Z,100218.38
2022-11-18T16:24:22.129Z,100210.47
2022-11-18T16:26:49.761Z,100217.50
2022-11-18T16:29:18.387Z,100214.03
2022-11-18T16:31:52.365Z,100215.75
2022-11-18T16:34:28.250Z,100217.53
2022-11-18T16:37:01.302Z,100220.16
2022-11-18T16:39:29.444Z,100221.94
2022-11-18T16:42:08.377Z,100223.84
2022-11-18T16:44:37.270Z,100229.13
2022-11-18T16:47:12.401Z,100233.50
2022-11-18T16:49:42.013Z,100233.41
2022-11-18T16:52:09.366Z,100238.66
2022-11-18T16:54:41.075Z,100240.41
2022-11-18T16:57:11.928Z,100248.28
2022-11-18T16:59:39.029Z,100243.03
2022-11-18T17:02:07.081Z,100250.16
2022-11-18T17:04:36.286Z,100247.56
2022-11-18T17:07:03.646Z,100253.66
2022-11-18T17:09:30.989Z,100251.97
2022-11-18T17:12:01.176Z,100244.84
2022-11-18T17:14:29.963Z,100245.84
2022-11-18T17:16:57.714Z,100246.72
2022-11-18T17:19:28.765Z,100253.72
2022-11-18T17:21:55.955Z,100252.72
2022-11-18T17:24:24.276Z,100255.34
2022-11-18T17:26:52.468Z,100260.56
2022-11-18T17:29:20.032Z,100265.06
2022-11-18T17:31:47.447Z,100261.59
2022-11-18T17:34:15.236Z,100262.47
2022-11-18T17:36:42.894Z,100264.22
2022-11-18T17:39:12.076Z,100272.13
2022-11-18T17:41:57.851Z,100274.66
2022-11-18T17:44:25.370Z,100270.38
2022-11-18T17:46:52.496Z,100269.50
2022-11-18T17:49:22.319Z,100274.78
2022-11-18T17:51:51.473Z,100278.28
2022-11-18T17:54:20.298Z,100280.97
2022-11-18T17:56:48.314Z,100282.72
2022-11-18T17:59:17.260Z,100289.69
2022-11-18T18:01:46.030Z,100294.97
2022-11-18T18:04:20.501Z,100296.72
2022-11-18T18:06:51.234Z,100297.59
2022-11-18T18:09:29.905Z,100294.09
2022-11-18T18:11:59.616Z,100296.72
2022-11-18T18:14:26.794Z,100304.63
2022-11-18T18:16:53.983Z,100306.38
2022-11-18T18:19:23.194Z,100303.75
2022-11-18T18:21:50.674Z,100308.13
2022-11-18T18:24:20.232Z,100309.03
2022-11-18T18:26:47.897Z,100309.91
2022-11-18T18:29:15.015Z,100313.44
2022-11-18T18:31:42.154Z,100311.66
2022-11-18T18:34:09.242Z,100309.03
2022-11-18T18:36:36.266Z,100309.03
2022-11-18T18:39:03.512Z,100300.25
2022-11-18T18:41:32.354Z,100306.38
2022-11-18T18:44:00.629Z,100304.66
2022-11-18T18:46:29.246Z,100305.53
2022-11-18T18:48:59.414Z,100319.56
2022-11-18T18:51:28.720Z,100318.69
2022-11-18T18:53:57.618Z,100325.72
2022-11-18T18:56:25.453Z,100326.59
2022-11-18T18:58:52.486Z,100327.47
2022-11-18T19:01:20.654Z,100329.25
2022-11-18T19:03:48.309Z,100333.63
2022-11-18T19:09:14.594Z,100331.84
2022-11-18T19:12:17.266Z,100330.06
2022-11-18T19:14:44.462Z,100330.06
2022-11-18T19:17:12.862Z,100329.19
2022-11-18T19:20:00.971Z,100330.94
2022-11-18T19:22:33.155Z,100337.03
2022-11-18T19:25:01.590Z,100327.41
2022-11-18T19:27:30.101Z,100339.66
2022-11-18T19:29:57.117Z,100344.03
2022-11-18T19:32:24.159Z,100336.16
2022-11-18T19:34:51.148Z,100342.28
2022-11-18T19:37:18.274Z,100351.91
2022-11-18T19:39:45.627Z,100347.50
2022-11-18T19:42:12.861Z,100345.75
2022-11-18T19:44:39.964Z,100356.28
2022-11-18T19:47:07.133Z,100357.19
2022-11-18T19:49:34.341Z,100358.03
2022-11-18T19:52:01.797Z,100353.69
2022-11-18T19:54:28.954Z,100363.31
2022-11-18T19:56:56.054Z,100365.06
2022-11-18T19:59:23.276Z,100363.31
2022-11-18T20:01:50.296Z,100365.94
2022-11-18T20:04:17.505Z,100365.06
2022-11-18T20:06:45.649Z,100365.09
2022-11-18T20:09:13.341Z,100365.94
2022-11-18T20:11:40.885Z,100359.84
2022-11-18T20:14:09.761Z,100372.09
2022-11-18T20:16:38.212Z,100371.22
2022-11-18T20:19:10.836Z,100370.34
2022-11-18T20:21:39.216Z,100368.59
2022-11-18T20:24:07.906Z,100370.38
2022-11-18T20:26:38.536Z,100371.22
2022-11-18T20:29:07.664Z,100378.22
2022-11-18T20:31:35.816Z,100372.13
2022-11-18T20:34:03.899Z,100371.22
2022-11-18T20:36:36.427Z,100377.38
2022-11-18T20:39:08.370Z,100384.38
2022-11-18T20:41:36.483Z,100379.13
2022-11-18T20:44:04.449Z,100379.97
2022-11-18T20:46:31.808Z,100389.63
2022-11-18T20:48:58.781Z,100387.88
2022-11-18T20:51:28.162Z,100390.50
2022-11-18T20:53:57.323Z,100393.16
2022-11-18T20:56:27.252Z,100390.50
2022-11-18T20:58:56.911Z,100391.38
2022-11-18T21:01:27.544Z,100392.25
2022-11-18T21:03:58.288Z,100393.16
2022-11-18T21:06:29.524Z,100398.41
2022-11-18T21:09:02.754Z,100402.75
2022-11-18T21:11:30.762Z,100394.88
2022-11-18T21:14:22.945Z,100400.13
2022-11-18T21:16:52.097Z,100402.78
2022-11-18T21:19:19.695Z,100398.41
2022-11-18T21:21:52.577Z,100409.75
2022-11-18T21:24:23.244Z,100406.19
2022-11-18T21:26:54.663Z,100409.66
2022-11-18T21:29:23.662Z,100413.16
2022-11-18T21:31:51.550Z,100408.78
2022-11-18T21:34:19.545Z,100410.50
2022-11-18T21:36:50.339Z,100411.38
2022-11-18T21:39:21.954Z,100409.63
2022-11-18T21:41:54.901Z,100414.03
2022-11-18T21:44:22.689Z,100416.66
2022-11-18T21:46:49.730Z,100419.28
2022-11-18T21:49:17.390Z,100417.53
2022-11-18T21:51:45.006Z,100420.16
2022-11-18T21:54:12.982Z,100421.91
2022-11-18T21:56:40.136Z,100419.28
2022-11-18T21:59:07.744Z,100428.91
2022-11-18T22:01:35.249Z,100433.28
2022-11-18T22:04:05.403Z,100435.03
2022-11-18T22:06:34.628Z,100435.06
2022-11-18T22:09:04.226Z,100438.56
2022-11-18T22:11:31.631Z,100440.34
2022-11-18T22:13:58.731Z,100450.91
2022-11-18T22:16:27.380Z,100443.00
2022-11-18T22:19:03.692Z,100450.94
2022-11-18T22:21:32.174Z,100450.94
2022-11-18T22:24:00.920Z,100457.13
2022-11-18T22:26:28.841Z,100456.25
2022-11-18T22:28:57.959Z,100451.88
2022-11-18T22:31:28.063Z,100456.28
2022-11-18T22:33:57.042Z,100460.66
2022-11-18T22:36:26.529Z,100467.66
2022-11-18T22:38:54.786Z,100467.69
2022-11-18T22:41:43.593Z,100466.81
2022-11-18T22:44:13.778Z,100466.81
2022-11-18T22:46:43.340Z,100471.22
2022-11-18T22:49:12.006Z,100460.72
2022-11-18T22:51:40.357Z,100467.75
2022-11-18T22:56:56.214Z,100481.78
2022-11-18T22:59:24.157Z,100478.28
2022-11-18T23:01:54.391Z,100483.53
2022-11-18T23:04:21.773Z,100492.28
2022-11-18T23:06:49.785Z,100496.66
2022-11-18T23:09:17.370Z,100489.69
2022-11-18T23:12:03.517Z,100497.56
2022-11-18T23:14:30.818Z,100497.56
2022-11-18T23:16:57.887Z,100501.06
2022-11-18T23:19:24.925Z,100499.31
2022-11-18T23:21:52.118Z,100506.28
2022-11-18T23:24:19.935Z,100510.66
2022-11-18T23:26:47.359Z,100514.19
2022-11-18T23:29:15.886Z,100512.44
2022-11-18T23:31:44.985Z,100522.94
2022-11-18T23:34:14.080Z,100521.19
2022-11-18T23:36:41.774Z,100529.06
2022-11-18T23:39:09.023Z,100521.19
2022-11-18T23:41:36.527Z,100528.19
2022-11-18T23:44:05.317Z,100530.81
2022-11-18T23:46:33.177Z,100538.66
2022-11-18T23:49:00.505Z,100536.91
2022-11-18T23:51:27.455Z,100538.66
2022-11-18T23:53:57.243Z,100526.41
2022-11-18T23:56:28.277Z,100536.03
2022-11-18T23:58:56.713Z,100532.50
